createdAt,value
2022-12-23T00:00:54.921Z,10.59
2022-12-23T00:01:55.044Z,10.66
2022-12-23T00:02:55.139Z,10.65
2022-12-23T00:03:54.765Z,10.59
2022-12-23T00:04:54.687Z,10.59
2022-12-23T00:05:54.626Z,10.62
2022-12-23T00:06:54.568Z,10.62
2022-12-23T00:07:54.503Z,10.58
2022-12-23T00:08:54.453Z,10.71
2022-12-23T00:09:54.391Z,10.58
2022-12-23T00:10:54.330Z,10.59
2022-12-23T00:11:54.278Z,10.68
2022-12-23T00:12:54.217Z,10.66
2022-12-23T00:13:54.168Z,10.59
2022-12-23T00:14:54.099Z,10.63
2022-12-23T00:15:54.050Z,10.63
2022-12-23T00:16:54.021Z,10.70
2022-12-23T00:17:53.938Z,10.62
2022-12-23T00:18:53.867Z,10.60
2022-12-23T00:19:53.806Z,10.59
2022-12-23T00:20:53.755Z,10.58
2022-12-23T00:21:53.696Z,10.71
2022-12-23T00:22:53.635Z,10.60
2022-12-23T00:23:53.576Z,10.68
2022-12-23T00:24:53.524Z,10.71
2022-12-23T00:25:53.455Z,10.66
2022-12-23T00:26:53.400Z,10.59
2022-12-23T00:27:53.350Z,10.60
2022-12-23T00:28:53.285Z,10.58
2022-12-23T00:29:53.224Z,10.60
2022-12-23T00:30:53.167Z,10.58
2022-12-23T00:31:53.245Z,10.63
2022-12-23T00:32:53.049Z,10.66
2022-12-23T00:33:52.995Z,10.73
2022-12-23T00:34:52.933Z,10.68
2022-12-23T00:35:52.925Z,10.68
2022-12-23T00:36:52.812Z,10.62
2022-12-23T00:37:52.776Z,10.65
2022-12-23T00:38:52.698Z,10.59
2022-12-23T00:39:55.098Z,10.65
2022-12-23T00:40:52.580Z,10.63
2022-12-23T00:41:52.521Z,10.68
2022-12-23T00:42:52.469Z,10.63
2022-12-23T00:43:52.425Z,10.62
2022-12-23T00:44:52.356Z,10.63
2022-12-23T00:45:52.360Z,10.70
2022-12-23T00:46:52.234Z,10.60
2022-12-23T00:47:52.206Z,10.63
2022-12-23T00:48:52.121Z,10.65
2022-12-23T00:49:52.054Z,10.60
2022-12-23T00:50:52.000Z,10.55
2022-12-23T00:51:51.941Z,10.59
2022-12-23T00:52:51.882Z,10.59
2022-12-23T00:53:51.821Z,10.62
2022-12-23T00:54:51.766Z,10.59
2022-12-23T00:55:51.726Z,10.70
2022-12-23T00:56:51.648Z,10.60
2022-12-23T00:57:51.600Z,10.65
2022-12-23T00:58:51.531Z,10.59
2022-12-23T00:59:51.484Z,10.58
2022-12-23T01:00:51.439Z,10.70
2022-12-23T01:01:51.547Z,10.63
2022-12-23T01:02:51.457Z,10.59
2022-12-23T01:03:51.251Z,10.65
2022-12-23T01:04:51.184Z,10.70
2022-12-23T01:05:51.129Z,10.65
2022-12-23T01:06:51.067Z,10.63
2022-12-23T01:07:51.016Z,10.60
2022-12-23T01:08:50.946Z,10.73
2022-12-23T01:09:50.890Z,10.59
2022-12-23T01:10:50.836Z,10.71
2022-12-23T01:11:50.777Z,10.62
2022-12-23T01:12:50.717Z,10.65
2022-12-23T01:13:50.655Z,10.66
2022-12-23T01:14:50.600Z,10.71
2022-12-23T01:15:50.551Z,10.70
2022-12-23T01:16:50.540Z,10.65
2022-12-23T01:17:50.432Z,10.66
2022-12-23T01:18:50.365Z,10.59
2022-12-23T01:19:50.308Z,10.60
2022-12-23T01:20:50.247Z,10.68
2022-12-23T01:21:50.188Z,10.66
2022-12-23T01:22:50.136Z,10.71
2022-12-23T01:23:50.075Z,10.66
2022-12-23T01:24:50.021Z,10.66
2022-12-23T01:25:49.960Z,10.73
2022-12-23T01:26:49.896Z,10.68
2022-12-23T01:27:49.842Z,10.73
2022-12-23T01:28:49.786Z,10.66
2022-12-23T01:29:49.746Z,10.73
2022-12-23T01:30:49.668Z,10.70
2022-12-23T01:31:49.719Z,10.65
2022-12-23T01:32:49.552Z,10.68
2022-12-23T01:33:49.490Z,10.74
2022-12-23T01:34:49.430Z,10.68
2022-12-23T01:35:49.380Z,10.70
2022-12-23T01:36:49.323Z,10.71
2022-12-23T01:37:49.278Z,10.74
2022-12-23T01:38:49.196Z,10.65
2022-12-23T01:39:49.138Z,10.70
2022-12-23T01:40:49.104Z,10.74
2022-12-23T01:41:49.032Z,10.73
2022-12-23T01:42:48.966Z,10.68
2022-12-23T01:43:48.909Z,10.68
2022-12-23T01:44:48.883Z,10.73
2022-12-23T01:45:48.805Z,10.74
2022-12-23T01:46:48.732Z,10.70
2022-12-23T01:47:48.769Z,10.66
2022-12-23T01:48:48.622Z,10.70
2022-12-23T01:49:48.557Z,10.62
2022-12-23T01:50:48.509Z,10.68
2022-12-23T01:51:48.447Z,10.65
2022-12-23T01:52:48.388Z,10.66
2022-12-23T01:53:48.329Z,10.65
2022-12-23T01:54:48.265Z,10.63
2022-12-23T01:55:48.213Z,10.77
2022-12-23T01:56:48.147Z,10.68
2022-12-23T01:57:48.112Z,10.71
2022-12-23T01:58:48.030Z,10.70
2022-12-23T01:59:47.970Z,10.76
2022-12-23T02:00:47.914Z,10.68
2022-12-23T02:01:47.973Z,10.66
2022-12-23T02:02:47.871Z,10.66
2022-12-23T02:03:47.752Z,10.71
2022-12-23T02:04:47.686Z,10.66
2022-12-23T02:05:47.624Z,10.68
2022-12-23T02:06:47.568Z,10.63
2022-12-23T02:07:47.507Z,10.68
2022-12-23T02:08:47.448Z,10.70
2022-12-23T02:09:47.392Z,10.68
2022-12-23T02:10:47.338Z,10.63
2022-12-23T02:11:47.274Z,10.70
2022-12-23T02:12:47.219Z,10.63
2022-12-23T02:13:47.157Z,10.70
2022-12-23T02:14:47.108Z,10.71
2022-12-23T02:15:47.044Z,10.65
2022-12-23T02:16:47.029Z,10.62
2022-12-23T02:17:46.937Z,10.62
2022-12-23T02:18:46.881Z,10.71
2022-12-23T02:19:46.813Z,10.63
2022-12-23T02:20:46.752Z,10.63
2022-12-23T02:21:46.692Z,10.65
2022-12-23T02:22:46.640Z,10.76
2022-12-23T02:23:46.573Z,10.70
2022-12-23T02:24:46.518Z,10.77
2022-12-23T02:25:46.490Z,10.73
2022-12-23T02:26:46.400Z,10.74
2022-12-23T02:27:46.342Z,10.71
2022-12-23T02:28:46.284Z,10.76
2022-12-23T02:29:46.225Z,10.73
2022-12-23T02:30:46.234Z,10.76
2022-12-23T02:31:46.115Z,10.73
2022-12-23T02:32:46.048Z,10.71
2022-12-23T02:33:45.991Z,10.76
2022-12-23T02:34:45.935Z,10.77
2022-12-23T02:35:45.880Z,10.78
2022-12-23T02:36:45.818Z,10.68
2022-12-23T02:37:45.753Z,10.76
2022-12-23T02:38:45.697Z,10.73
2022-12-23T02:39:45.638Z,10.71
2022-12-23T02:40:45.588Z,10.73
2022-12-23T02:41:45.529Z,10.70
2022-12-23T02:42:45.461Z,10.73
2022-12-23T02:43:45.403Z,10.78
2022-12-23T02:44:45.355Z,10.74
2022-12-23T02:45:45.346Z,10.78
2022-12-23T02:46:45.406Z,10.73
2022-12-23T02:47:45.190Z,10.71
2022-12-23T02:48:45.122Z,10.84
2022-12-23T02:49:45.072Z,10.78
2022-12-23T02:50:44.997Z,10.74
2022-12-23T02:51:44.951Z,10.76
2022-12-23T02:52:44.882Z,10.78
2022-12-23T02:53:44.821Z,10.76
2022-12-23T02:54:44.788Z,10.78
2022-12-23T02:55:44.712Z,10.77
2022-12-23T02:56:44.652Z,10.77
2022-12-23T02:57:44.593Z,10.76
2022-12-23T02:58:44.539Z,10.81
2022-12-23T02:59:44.472Z,10.80
2022-12-23T03:00:44.419Z,10.78
2022-12-23T03:01:44.565Z,10.70
2022-12-23T03:02:44.518Z,10.76
2022-12-23T03:03:44.384Z,10.76
2022-12-23T03:04:44.182Z,10.78
2022-12-23T03:05:44.131Z,10.78
2022-12-23T03:06:44.063Z,10.81
2022-12-23T03:07:44.016Z,10.80
2022-12-23T03:08:43.964Z,10.76
2022-12-23T03:09:43.894Z,10.73
2022-12-23T03:10:43.839Z,10.76
2022-12-23T03:11:43.779Z,10.78
2022-12-23T03:12:43.720Z,10.78
2022-12-23T03:13:43.662Z,10.74
2022-12-23T03:14:43.597Z,10.78
2022-12-23T03:15:43.563Z,10.78
2022-12-23T03:16:43.480Z,10.76
2022-12-23T03:17:43.435Z,10.78
2022-12-23T03:18:43.363Z,10.76
2022-12-23T03:19:43.305Z,10.78
2022-12-23T03:20:43.316Z,10.78
2022-12-23T03:21:43.242Z,10.77
2022-12-23T03:22:43.131Z,10.76
2022-12-23T03:23:43.110Z,10.80
2022-12-23T03:24:43.014Z,10.78
2022-12-23T03:25:42.964Z,10.78
2022-12-23T03:26:42.905Z,10.77
2022-12-23T03:27:42.847Z,10.80
2022-12-23T03:28:42.802Z,10.80
2022-12-23T03:29:42.752Z,10.81
2022-12-23T03:30:42.718Z,10.81
2022-12-23T03:31:42.732Z,10.74
2022-12-23T03:32:42.552Z,10.77
2022-12-23T03:33:42.502Z,10.80
2022-12-23T03:34:42.441Z,10.77
2022-12-23T03:35:42.385Z,10.74
2022-12-23T03:36:42.320Z,10.74
2022-12-23T03:37:42.264Z,10.76
2022-12-23T03:38:42.200Z,10.77
2022-12-23T03:39:42.152Z,10.77
2022-12-23T03:40:42.089Z,10.78
2022-12-23T03:41:42.031Z,10.74
2022-12-23T03:42:41.967Z,10.77
2022-12-23T03:43:48.325Z,10.78
2022-12-23T03:44:57.209Z,10.76
2022-12-23T03:45:41.930Z,10.76
2022-12-23T03:46:41.793Z,10.80
2022-12-23T03:47:41.684Z,10.74
2022-12-23T03:48:41.619Z,10.77
2022-12-23T03:49:41.563Z,10.71
2022-12-23T03:50:41.506Z,10.80
2022-12-23T03:51:41.446Z,10.78
2022-12-23T03:52:41.387Z,10.73
2022-12-23T03:53:41.326Z,10.78
2022-12-23T03:54:41.277Z,10.78
2022-12-23T03:55:41.217Z,10.77
2022-12-23T03:56:41.160Z,10.76
2022-12-23T03:57:41.099Z,10.78
2022-12-23T03:58:41.071Z,10.76
2022-12-23T03:59:40.980Z,10.78
2022-12-23T04:00:40.923Z,10.77
2022-12-23T04:01:40.991Z,10.81
2022-12-23T04:02:40.940Z,10.78
2022-12-23T04:03:40.773Z,10.74
2022-12-23T04:04:40.684Z,10.78
2022-12-23T04:05:40.639Z,10.81
2022-12-23T04:06:40.570Z,10.80
2022-12-23T04:07:40.513Z,10.77
2022-12-23T04:08:40.451Z,10.77
2022-12-23T04:09:40.404Z,10.80
2022-12-23T04:10:40.351Z,10.77
2022-12-23T04:11:40.431Z,10.77
2022-12-23T04:12:40.222Z,10.76
2022-12-23T04:13:40.179Z,10.77
2022-12-23T04:14:40.109Z,10.74
2022-12-23T04:15:40.100Z,10.77
2022-12-23T04:16:40.079Z,10.76
2022-12-23T04:17:39.940Z,10.77
2022-12-23T04:18:39.872Z,10.80
2022-12-23T04:19:39.814Z,10.76
2022-12-23T04:20:39.755Z,10.77
2022-12-23T04:21:39.705Z,10.77
2022-12-23T04:22:39.664Z,10.80
2022-12-23T04:23:39.588Z,10.78
2022-12-23T04:24:39.520Z,10.78
2022-12-23T04:25:39.511Z,10.76
2022-12-23T04:26:39.404Z,10.77
2022-12-23T04:27:39.358Z,10.76
2022-12-23T04:28:39.287Z,10.78
2022-12-23T04:29:39.250Z,10.80
2022-12-23T04:30:39.177Z,10.83
2022-12-23T04:31:39.193Z,10.81
2022-12-23T04:32:39.069Z,10.83
2022-12-23T04:33:39.012Z,10.83
2022-12-23T04:34:38.938Z,10.83
2022-12-23T04:35:38.887Z,10.83
2022-12-23T04:36:38.826Z,10.77
2022-12-23T04:37:38.778Z,10.81
2022-12-23T04:38:38.709Z,10.80
2022-12-23T04:39:38.654Z,10.77
2022-12-23T04:40:38.596Z,10.74
2022-12-23T04:41:38.536Z,10.77
2022-12-23T04:42:38.478Z,10.84
2022-12-23T04:43:38.429Z,10.81
2022-12-23T04:44:38.367Z,10.84
2022-12-23T04:45:38.306Z,10.77
2022-12-23T04:46:38.335Z,10.76
2022-12-23T04:47:38.185Z,10.76
2022-12-23T04:48:38.129Z,10.80
2022-12-23T04:49:38.067Z,10.81
2022-12-23T04:50:38.011Z,10.84
2022-12-23T04:51:37.955Z,10.83
2022-12-23T04:52:37.909Z,10.84
2022-12-23T04:53:37.843Z,10.81
2022-12-23T04:54:43.853Z,10.77
2022-12-23T04:55:37.718Z,10.76
2022-12-23T04:56:37.681Z,10.77
2022-12-23T04:57:37.609Z,10.76
2022-12-23T04:58:37.541Z,10.83
2022-12-23T04:59:37.495Z,10.83
2022-12-23T05:00:39.786Z,10.81
2022-12-23T05:01:37.538Z,10.77
2022-12-23T05:02:37.445Z,10.78
2022-12-23T05:03:37.303Z,10.77
2022-12-23T05:04:37.236Z,10.83
2022-12-23T05:05:37.140Z,10.74
2022-12-23T05:06:37.089Z,10.83
2022-12-23T05:07:37.018Z,10.77
2022-12-23T05:08:36.965Z,10.84
2022-12-23T05:09:36.908Z,10.84
2022-12-23T05:10:36.853Z,10.78
2022-12-23T05:11:41.927Z,10.77
2022-12-23T05:12:36.740Z,10.77
2022-12-23T05:13:36.684Z,10.78
2022-12-23T05:14:36.613Z,10.81
2022-12-23T05:15:36.562Z,10.88
2022-12-23T05:16:36.557Z,10.86
2022-12-23T05:17:36.442Z,10.76
2022-12-23T05:18:36.379Z,10.88
2022-12-23T05:19:36.324Z,10.78
2022-12-23T05:20:36.264Z,10.81
2022-12-23T05:21:36.207Z,10.84
2022-12-23T05:22:36.157Z,10.83
2022-12-23T05:23:36.091Z,10.88
2022-12-23T05:24:36.035Z,10.86
2022-12-23T05:25:35.974Z,10.91
2022-12-23T05:26:35.915Z,10.84
2022-12-23T05:27:35.858Z,10.81
2022-12-23T05:28:35.795Z,10.86
2022-12-23T05:29:35.744Z,10.92
2022-12-23T05:30:35.682Z,10.83
2022-12-23T05:31:35.686Z,10.83
2022-12-23T05:32:35.567Z,10.78
2022-12-23T05:33:35.626Z,10.86
2022-12-23T05:34:35.456Z,10.81
2022-12-23T05:35:35.395Z,10.89
2022-12-23T05:36:35.341Z,10.88
2022-12-23T05:37:35.279Z,10.83
2022-12-23T05:38:35.228Z,10.84
2022-12-23T05:39:35.159Z,10.83
2022-12-23T05:40:35.115Z,10.89
2022-12-23T05:41:35.041Z,10.76
2022-12-23T05:42:34.980Z,10.83
2022-12-23T05:43:34.926Z,10.86
2022-12-23T05:44:34.867Z,10.84
2022-12-23T05:45:34.869Z,10.88
2022-12-23T05:46:34.808Z,10.83
2022-12-23T05:47:34.694Z,10.89
2022-12-23T05:48:34.643Z,10.81
2022-12-23T05:49:34.585Z,10.84
2022-12-23T05:50:34.520Z,10.86
2022-12-23T05:51:34.459Z,10.78
2022-12-23T05:52:34.417Z,10.81
2022-12-23T05:53:34.348Z,10.91
2022-12-23T05:54:34.281Z,10.83
2022-12-23T05:55:34.232Z,10.86
2022-12-23T05:56:34.173Z,10.92
2022-12-23T05:57:34.126Z,10.86
2022-12-23T05:58:34.074Z,10.86
2022-12-23T05:59:33.996Z,10.89
2022-12-23T06:00:33.940Z,10.81
2022-12-23T06:01:34.041Z,10.83
2022-12-23T06:02:34.050Z,10.84
2022-12-23T06:03:33.973Z,10.88
2022-12-23T06:04:33.707Z,10.86
2022-12-23T06:05:33.647Z,10.81
2022-12-23T06:06:33.591Z,10.84
2022-12-23T06:07:33.527Z,10.83
2022-12-23T06:08:33.479Z,10.81
2022-12-23T06:09:33.415Z,10.81
2022-12-23T06:10:33.360Z,10.92
2022-12-23T06:11:33.297Z,10.81
2022-12-23T06:12:33.237Z,10.81
2022-12-23T06:13:33.180Z,10.83
2022-12-23T06:14:33.121Z,10.86
2022-12-23T06:15:33.066Z,10.83
2022-12-23T06:16:33.026Z,10.88
2022-12-23T06:17:33.005Z,10.91
2022-12-23T06:18:32.893Z,10.83
2022-12-23T06:19:32.837Z,10.81
2022-12-23T06:20:32.771Z,10.81
2022-12-23T06:21:32.721Z,10.81
2022-12-23T06:22:32.671Z,10.86
2022-12-23T06:23:32.600Z,10.83
2022-12-23T06:24:32.539Z,10.89
2022-12-23T06:25:32.490Z,10.78
2022-12-23T06:26:32.427Z,10.88
2022-12-23T06:27:32.382Z,10.89
2022-12-23T06:28:32.310Z,10.89
2022-12-23T06:29:32.258Z,10.83
2022-12-23T06:30:32.199Z,10.88
2022-12-23T06:31:32.137Z,10.81
2022-12-23T06:32:37.872Z,10.83
2022-12-23T06:33:32.018Z,10.80
2022-12-23T06:34:31.960Z,10.88
2022-12-23T06:35:31.913Z,10.88
2022-12-23T06:36:31.845Z,10.86
2022-12-23T06:37:31.788Z,10.81
2022-12-23T06:38:31.734Z,10.80
2022-12-23T06:39:31.665Z,10.83
2022-12-23T06:40:31.617Z,10.88
2022-12-23T06:41:31.559Z,10.83
2022-12-23T06:42:31.497Z,10.84
2022-12-23T06:43:31.438Z,10.84
2022-12-23T06:44:31.483Z,10.81
2022-12-23T06:45:31.396Z,10.80
2022-12-23T06:46:31.330Z,10.88
2022-12-23T06:47:31.200Z,10.81
2022-12-23T06:48:31.145Z,10.78
2022-12-23T06:49:31.085Z,10.86
2022-12-23T06:50:31.029Z,10.91
2022-12-23T06:51:30.983Z,10.84
2022-12-23T06:52:30.908Z,10.84
2022-12-23T06:53:30.854Z,10.84
2022-12-23T06:54:30.893Z,10.89
2022-12-23T06:55:30.739Z,10.89
2022-12-23T06:56:30.686Z,10.86
2022-12-23T06:57:30.639Z,10.81
2022-12-23T06:58:30.562Z,10.86
2022-12-23T06:59:30.507Z,10.78
2022-12-23T07:00:30.473Z,10.92
2022-12-23T07:01:30.533Z,10.84
2022-12-23T07:02:30.459Z,10.89
2022-12-23T07:03:30.308Z,10.86
2022-12-23T07:04:30.336Z,10.84
2022-12-23T07:05:36.738Z,10.88
2022-12-23T07:06:30.098Z,10.91
2022-12-23T07:07:30.046Z,10.86
2022-12-23T07:08:29.986Z,10.89
2022-12-23T07:09:29.920Z,10.92
2022-12-23T07:10:29.907Z,10.88
2022-12-23T07:11:29.809Z,10.86
2022-12-23T07:12:29.749Z,10.83
2022-12-23T07:13:29.696Z,10.84
2022-12-23T07:14:29.637Z,10.91
2022-12-23T07:15:29.574Z,10.86
2022-12-23T07:16:29.552Z,10.88
2022-12-23T07:17:29.462Z,10.83
2022-12-23T07:18:29.405Z,10.98
2022-12-23T07:19:29.340Z,10.84
2022-12-23T07:20:29.282Z,10.83
2022-12-23T07:21:30.143Z,10.81
2022-12-23T07:22:29.193Z,10.89
2022-12-23T07:23:29.123Z,10.83
2022-12-23T07:24:29.047Z,10.86
2022-12-23T07:25:28.996Z,10.78
2022-12-23T07:26:28.931Z,10.81
2022-12-23T07:27:28.872Z,10.91
2022-12-23T07:28:28.815Z,10.83
2022-12-23T07:29:28.770Z,10.84
2022-12-23T07:30:28.701Z,10.83
2022-12-23T07:31:28.794Z,10.83
2022-12-23T07:32:28.587Z,10.92
2022-12-23T07:33:28.526Z,10.86
2022-12-23T07:34:28.470Z,10.88
2022-12-23T07:35:28.411Z,10.83
2022-12-23T07:36:28.353Z,10.84
2022-12-23T07:37:28.293Z,10.92
2022-12-23T07:38:28.231Z,10.84
2022-12-23T07:39:28.210Z,10.86
2022-12-23T07:40:28.224Z,10.81
2022-12-23T07:41:28.060Z,10.83
2022-12-23T07:42:46.049Z,10.78
2022-12-23T07:43:27.953Z,10.83
2022-12-23T07:44:27.890Z,10.83
2022-12-23T07:45:27.957Z,10.81
2022-12-23T07:46:27.916Z,10.88
2022-12-23T07:47:27.722Z,10.92
2022-12-23T07:48:27.722Z,10.84
2022-12-23T07:49:27.595Z,10.86
2022-12-23T07:50:27.686Z,10.88
2022-12-23T07:51:27.475Z,10.81
2022-12-23T07:52:27.426Z,10.91
2022-12-23T07:53:27.361Z,10.86
2022-12-23T07:54:27.300Z,10.84
2022-12-23T07:55:27.256Z,10.83
2022-12-23T07:56:27.192Z,10.89
2022-12-23T07:57:27.133Z,10.86
2022-12-23T07:58:27.072Z,10.78
2022-12-23T07:59:27.019Z,10.88
2022-12-23T08:00:26.957Z,10.88
2022-12-23T08:01:27.141Z,10.81
2022-12-23T08:02:27.038Z,10.86
2022-12-23T08:03:26.818Z,10.84
2022-12-23T08:04:26.773Z,10.89
2022-12-23T08:05:26.734Z,10.83
2022-12-23T08:06:26.610Z,10.83
2022-12-23T08:07:26.545Z,10.86
2022-12-23T08:08:26.489Z,10.89
2022-12-23T08:09:26.441Z,10.91
2022-12-23T08:10:26.429Z,10.89
2022-12-23T08:11:26.321Z,10.89
2022-12-23T08:12:26.262Z,10.81
2022-12-23T08:13:26.205Z,10.89
2022-12-23T08:14:26.139Z,10.84
2022-12-23T08:15:26.086Z,10.86
2022-12-23T08:16:26.106Z,10.83
2022-12-23T08:17:25.982Z,10.84
2022-12-23T08:18:25.914Z,10.89
2022-12-23T08:19:25.855Z,10.92
2022-12-23T08:20:25.849Z,10.92
2022-12-23T08:21:25.756Z,10.91
2022-12-23T08:22:25.677Z,10.83
2022-12-23T08:23:25.614Z,10.94
2022-12-23T08:24:25.630Z,10.92
2022-12-23T08:25:25.514Z,10.92
2022-12-23T08:26:25.441Z,10.91
2022-12-23T08:27:25.415Z,10.88
2022-12-23T08:28:25.326Z,10.92
2022-12-23T08:29:25.267Z,10.89
2022-12-23T08:30:25.277Z,10.91
2022-12-23T08:31:25.273Z,10.89
2022-12-23T08:32:25.094Z,10.92
2022-12-23T08:33:25.038Z,10.88
2022-12-23T08:34:24.984Z,10.89
2022-12-23T08:35:24.918Z,10.91
2022-12-23T08:36:24.871Z,10.98
2022-12-23T08:37:24.810Z,10.92
2022-12-23T08:38:24.762Z,10.94
2022-12-23T08:39:24.687Z,10.88
2022-12-23T08:40:24.708Z,10.94
2022-12-23T08:41:24.571Z,10.89
2022-12-23T08:42:24.512Z,10.92
2022-12-23T08:43:27.616Z,10.96
2022-12-23T08:44:24.393Z,10.86
2022-12-23T08:45:24.340Z,10.88
2022-12-23T08:46:24.370Z,10.86
2022-12-23T08:47:24.231Z,10.89
2022-12-23T08:48:24.167Z,10.96
2022-12-23T08:49:24.105Z,10.94
2022-12-23T08:50:24.056Z,10.89
2022-12-23T08:51:23.990Z,10.95
2022-12-23T08:52:23.932Z,10.94
2022-12-23T08:53:23.873Z,10.91
2022-12-23T08:54:23.827Z,10.91
2022-12-23T08:55:23.761Z,10.88
2022-12-23T08:56:23.705Z,10.88
2022-12-23T08:57:23.651Z,10.92
2022-12-23T08:58:23.592Z,10.95
2022-12-23T08:59:23.522Z,10.94
2022-12-23T09:00:23.614Z,10.92
2022-12-23T09:01:23.490Z,10.92
2022-12-23T09:02:23.574Z,10.92
2022-12-23T09:03:23.373Z,10.95
2022-12-23T09:04:23.253Z,10.98
2022-12-23T09:05:23.190Z,10.95
2022-12-23T09:06:28.606Z,10.94
2022-12-23T09:07:23.073Z,10.95
2022-12-23T09:08:22.999Z,10.96
2022-12-23T09:09:22.946Z,11.02
2022-12-23T09:10:22.927Z,10.94
2022-12-23T09:11:22.827Z,10.98
2022-12-23T09:12:22.772Z,10.92
2022-12-23T09:13:30.992Z,10.98
2022-12-23T09:14:22.656Z,10.96
2022-12-23T09:15:22.613Z,10.95
2022-12-23T09:16:22.630Z,10.99
2022-12-23T09:17:22.483Z,10.96
2022-12-23T09:18:22.425Z,10.99
2022-12-23T09:19:22.380Z,10.92
2022-12-23T09:20:22.378Z,11.02
2022-12-23T09:21:22.251Z,10.94
2022-12-23T09:22:22.198Z,10.94
2022-12-23T09:23:22.139Z,11.02
2022-12-23T09:24:22.081Z,10.98
2022-12-23T09:25:22.010Z,10.94
2022-12-23T09:26:21.957Z,10.98
2022-12-23T09:27:21.897Z,11.01
2022-12-23T09:28:21.837Z,10.92
2022-12-23T09:29:21.789Z,11.01
2022-12-23T09:30:21.785Z,11.03
2022-12-23T09:31:21.782Z,10.98
2022-12-23T09:32:21.608Z,10.89
2022-12-23T09:33:21.547Z,11.02
2022-12-23T09:34:21.494Z,10.99
2022-12-23T09:35:21.435Z,11.02
2022-12-23T09:36:21.387Z,11.06
2022-12-23T09:37:21.335Z,10.94
2022-12-23T09:38:21.288Z,10.95
2022-12-23T09:39:21.202Z,11.06
2022-12-23T09:40:21.206Z,11.06
2022-12-23T09:41:21.081Z,11.02
2022-12-23T09:42:21.024Z,10.99
2022-12-23T09:43:20.968Z,10.96
2022-12-23T09:44:20.913Z,11.03
2022-12-23T09:45:20.855Z,11.09
2022-12-23T09:46:20.835Z,11.02
2022-12-23T09:47:20.756Z,11.01
2022-12-23T09:48:20.675Z,10.96
2022-12-23T09:49:20.624Z,10.99
2022-12-23T09:50:20.623Z,11.03
2022-12-23T09:51:20.510Z,11.02
2022-12-23T09:52:20.443Z,11.01
2022-12-23T09:53:20.391Z,11.09
2022-12-23T09:54:20.333Z,11.11
2022-12-23T09:55:20.270Z,11.06
2022-12-23T09:56:20.219Z,11.03
2022-12-23T09:57:20.154Z,11.13
2022-12-23T09:58:20.099Z,11.01
2022-12-23T09:59:20.040Z,11.09
2022-12-23T10:00:20.059Z,11.07
2022-12-23T10:01:20.062Z,10.98
2022-12-23T10:02:20.033Z,11.10
2022-12-23T10:03:20.091Z,11.13
2022-12-23T10:04:19.789Z,11.03
2022-12-23T10:05:19.688Z,11.06
2022-12-23T10:06:19.633Z,11.03
2022-12-23T10:07:19.587Z,11.02
2022-12-23T10:08:19.525Z,11.07
2022-12-23T10:09:19.457Z,11.02
2022-12-23T10:10:19.434Z,11.01
2022-12-23T10:11:19.340Z,10.99
2022-12-23T10:12:25.363Z,11.09
2022-12-23T10:13:19.229Z,11.02
2022-12-23T10:14:19.189Z,11.02
2022-12-23T10:15:19.111Z,11.06
2022-12-23T10:16:19.093Z,11.02
2022-12-23T10:17:18.997Z,11.02
2022-12-23T10:18:18.944Z,11.09
2022-12-23T10:19:18.888Z,11.01
2022-12-23T10:20:18.859Z,11.02
2022-12-23T10:21:18.769Z,11.01
2022-12-23T10:22:18.707Z,11.03
2022-12-23T10:23:18.648Z,11.06
2022-12-23T10:24:18.586Z,11.02
2022-12-23T10:25:18.533Z,11.03
2022-12-23T10:26:18.473Z,11.07
2022-12-23T10:27:18.413Z,11.10
2022-12-23T10:28:18.377Z,11.06
2022-12-23T10:29:19.215Z,11.13
2022-12-23T10:31:46.628Z,11.01
2022-12-23T10:32:18.177Z,11.06
2022-12-23T10:33:18.098Z,11.07
2022-12-23T10:34:18.011Z,11.14
2022-12-23T10:35:17.961Z,11.01
2022-12-23T10:36:17.947Z,11.13
2022-12-23T10:37:17.839Z,11.02
2022-12-23T10:38:17.774Z,11.17
2022-12-23T10:39:17.718Z,11.17
2022-12-23T10:40:17.741Z,11.17
2022-12-23T10:41:17.602Z,11.09
2022-12-23T10:42:17.548Z,11.09
2022-12-23T10:43:17.484Z,11.11
2022-12-23T10:44:17.432Z,11.07
2022-12-23T10:45:17.366Z,11.11
2022-12-23T10:46:17.333Z,11.14
2022-12-23T10:47:17.254Z,11.17
2022-12-23T10:48:17.193Z,11.17
2022-12-23T10:49:17.140Z,11.13
2022-12-23T10:50:17.133Z,11.16
2022-12-23T10:51:17.047Z,11.07
2022-12-23T10:52:16.970Z,11.09
2022-12-23T10:53:16.901Z,11.20
2022-12-23T10:54:16.966Z,11.19
2022-12-23T10:55:16.786Z,11.19
2022-12-23T10:56:16.732Z,11.19
2022-12-23T10:57:16.679Z,11.11
2022-12-23T10:58:16.612Z,11.20
2022-12-23T10:59:16.559Z,11.14
2022-12-23T11:00:16.536Z,11.13
2022-12-23T11:01:26.038Z,11.17
2022-12-23T11:02:16.591Z,11.19
2022-12-23T11:03:16.521Z,11.16
2022-12-23T11:04:16.277Z,11.11
2022-12-23T11:05:16.217Z,11.19
2022-12-23T11:06:16.161Z,11.14
2022-12-23T11:07:43.623Z,11.16
2022-12-23T11:08:16.042Z,11.10
2022-12-23T11:09:15.977Z,11.13
2022-12-23T11:10:15.919Z,11.24
2022-12-23T11:11:15.858Z,11.17
2022-12-23T11:12:15.807Z,11.21
2022-12-23T11:13:15.748Z,11.19
2022-12-23T11:14:15.687Z,11.13
2022-12-23T11:15:15.641Z,11.11
2022-12-23T11:16:15.617Z,11.14
2022-12-23T11:17:15.512Z,11.16
2022-12-23T11:18:15.458Z,11.13
2022-12-23T11:19:15.413Z,11.19
2022-12-23T11:20:15.447Z,11.17
2022-12-23T11:21:15.285Z,11.13
2022-12-23T11:22:15.236Z,11.14
2022-12-23T11:23:15.179Z,11.20
2022-12-23T11:24:15.110Z,11.25
2022-12-23T11:25:15.056Z,11.17
2022-12-23T11:26:14.995Z,11.24
2022-12-23T11:27:14.933Z,11.16
2022-12-23T11:28:14.877Z,11.24
2022-12-23T11:29:14.820Z,11.16
2022-12-23T11:30:14.854Z,11.14
2022-12-23T11:31:14.807Z,11.14
2022-12-23T11:32:14.647Z,11.13
2022-12-23T11:33:14.586Z,11.13
2022-12-23T11:34:14.535Z,11.14
2022-12-23T11:35:14.538Z,11.19
2022-12-23T11:36:14.424Z,11.21
2022-12-23T11:37:14.358Z,11.16
2022-12-23T11:38:14.346Z,11.17
2022-12-23T11:39:14.328Z,11.19
2022-12-23T11:40:14.306Z,11.24
2022-12-23T11:41:14.133Z,11.21
2022-12-23T11:42:14.075Z,11.16
2022-12-23T11:43:14.014Z,11.17
2022-12-23T11:44:13.947Z,11.27
2022-12-23T11:45:13.895Z,11.17
2022-12-23T11:46:13.894Z,11.21
2022-12-23T11:47:13.779Z,11.13
2022-12-23T11:48:13.716Z,11.21
2022-12-23T11:49:13.660Z,11.13
2022-12-23T11:50:13.633Z,11.28
2022-12-23T11:51:13.552Z,11.25
2022-12-23T11:52:13.484Z,11.20
2022-12-23T11:53:13.436Z,11.25
2022-12-23T11:54:13.374Z,11.17
2022-12-23T11:55:13.330Z,11.17
2022-12-23T11:56:13.251Z,11.20
2022-12-23T11:57:13.273Z,11.17
2022-12-23T11:58:13.135Z,11.29
2022-12-23T11:59:13.080Z,11.20
2022-12-23T12:00:13.050Z,11.27
2022-12-23T12:01:12.966Z,11.25
2022-12-23T12:02:12.950Z,11.31
2022-12-23T12:03:12.895Z,11.16
2022-12-23T12:04:12.791Z,11.17
2022-12-23T12:05:12.736Z,11.29
2022-12-23T12:06:12.674Z,11.28
2022-12-23T12:07:12.621Z,11.29
2022-12-23T12:08:12.553Z,11.25
2022-12-23T12:09:12.509Z,11.32
2022-12-23T12:10:12.445Z,11.27
2022-12-23T12:11:12.402Z,11.29
2022-12-23T12:12:12.330Z,11.32
2022-12-23T12:13:12.265Z,11.29
2022-12-23T12:14:12.207Z,11.29
2022-12-23T12:15:12.156Z,11.28
2022-12-23T12:16:12.125Z,11.35
2022-12-23T12:17:12.134Z,11.28
2022-12-23T12:18:11.975Z,11.27
2022-12-23T12:19:11.928Z,11.25
2022-12-23T12:20:11.870Z,11.34
2022-12-23T12:21:11.810Z,11.32
2022-12-23T12:22:11.749Z,11.36
2022-12-23T12:23:11.687Z,11.34
2022-12-23T12:24:19.801Z,11.29
2022-12-23T12:25:11.601Z,11.29
2022-12-23T12:26:11.517Z,11.35
2022-12-23T12:27:11.465Z,11.29
2022-12-23T12:28:11.407Z,11.35
2022-12-23T12:29:11.341Z,11.29
2022-12-23T12:30:11.282Z,11.35
2022-12-23T12:31:11.244Z,11.36
2022-12-23T12:32:11.171Z,11.31
2022-12-23T12:33:11.115Z,11.35
2022-12-23T12:34:11.053Z,11.27
2022-12-23T12:35:10.996Z,11.34
2022-12-23T12:36:10.982Z,11.32
2022-12-23T12:37:10.884Z,11.32
2022-12-23T12:38:10.816Z,11.34
2022-12-23T12:39:10.760Z,11.32
2022-12-23T12:40:10.697Z,11.36
2022-12-23T12:41:10.643Z,11.35
2022-12-23T12:42:10.609Z,11.38
2022-12-23T12:43:10.537Z,11.35
2022-12-23T12:44:10.479Z,11.32
2022-12-23T12:45:10.420Z,11.36
2022-12-23T12:46:10.372Z,11.38
2022-12-23T12:47:28.475Z,11.32
2022-12-23T12:48:18.100Z,11.36
2022-12-23T12:49:10.186Z,11.38
2022-12-23T12:50:10.123Z,11.35
2022-12-23T12:51:10.104Z,11.34
2022-12-23T12:52:10.050Z,11.38
2022-12-23T12:53:09.961Z,11.38